createdAt,value
2022-10-11T00:00:20.214Z,67.60
2022-10-11T00:02:46.932Z,67.50
2022-10-11T00:05:16.267Z,67.60
2022-10-11T00:07:43.642Z,67.60
2022-10-11T00:10:13.020Z,67.80
2022-10-11T00:12:42.813Z,68.00
2022-10-11T00:15:15.417Z,68.00
2022-10-11T00:17:42.382Z,68.70
2022-10-11T00:20:10.115Z,68.50
2022-10-11T00:22:37.938Z,69.00
2022-10-11T00:25:06.838Z,68.40
2022-10-11T00:27:38.791Z,69.00
2022-10-11T00:30:09.470Z,69.10
2022-10-11T00:32:37.720Z,69.20
2022-10-11T00:35:06.472Z,70.00
2022-10-11T00:37:40.322Z,69.40
2022-10-11T00:40:14.627Z,69.40
2022-10-11T00:42:43.785Z,69.10
2022-10-11T00:45:29.562Z,69.10
2022-10-11T00:48:11.493Z,69.20
2022-10-11T00:50:38.332Z,69.70
2022-10-11T00:53:10.836Z,70.00
2022-10-11T00:55:45.674Z,70.50
2022-10-11T00:58:13.588Z,70.40
2022-10-11T01:00:40.369Z,70.30
2022-10-11T01:03:07.228Z,70.50
2022-10-11T01:05:38.684Z,70.80
2022-10-11T01:08:07.101Z,71.30
2022-10-11T01:10:36.407Z,72.30
2022-10-11T01:13:12.056Z,71.10
2022-10-11T01:15:49.853Z,71.40
2022-10-11T01:18:28.137Z,71.50
2022-10-11T01:21:14.471Z,71.40
2022-10-11T01:24:08.698Z,72.30
2022-10-11T01:26:55.991Z,73.10
2022-10-11T01:29:49.675Z,73.30
2022-10-11T01:32:21.567Z,73.30
2022-10-11T01:34:58.553Z,73.70
2022-10-11T01:37:39.167Z,74.30
2022-10-11T01:40:14.744Z,74.30
2022-10-11T01:42:42.968Z,75.00
2022-10-11T01:45:15.278Z,75.50
2022-10-11T01:47:45.880Z,75.70
2022-10-11T01:50:39.924Z,75.80
2022-10-11T01:53:27.049Z,76.10
2022-10-11T01:56:05.948Z,76.60
2022-10-11T01:58:51.271Z,76.60
2022-10-11T02:01:51.204Z,76.70
2022-10-11T02:04:36.262Z,77.20
2022-10-11T02:07:15.879Z,77.40
2022-10-11T02:09:58.862Z,78.20
2022-10-11T02:12:36.605Z,78.10
2022-10-11T02:15:09.220Z,77.90
2022-10-11T02:17:43.465Z,78.40
2022-10-11T02:20:18.982Z,78.30
2022-10-11T02:22:49.168Z,79.20
2022-10-11T02:25:22.793Z,79.40
2022-10-11T02:27:54.684Z,79.80
2022-10-11T02:30:21.504Z,80.20
2022-10-11T02:32:50.366Z,80.20
2022-10-11T02:35:18.697Z,80.10
2022-10-11T02:37:51.482Z,79.90
2022-10-11T02:40:26.502Z,80.30
2022-10-11T02:43:09.538Z,80.30
2022-10-11T02:45:49.778Z,80.40
2022-10-11T02:48:17.000Z,80.30
2022-10-11T02:50:47.396Z,79.90
2022-10-11T02:53:14.116Z,80.20
2022-10-11T02:55:41.032Z,80.60
2022-10-11T02:58:08.138Z,80.30
2022-10-11T03:00:34.882Z,80.70
2022-10-11T03:03:01.679Z,80.60
2022-10-11T03:05:28.631Z,80.60
2022-10-11T03:07:55.404Z,80.30
2022-10-11T03:10:25.499Z,80.90
2022-10-11T03:12:52.283Z,80.80
2022-10-11T03:15:19.000Z,81.10
2022-10-11T03:17:48.243Z,81.00
2022-10-11T03:20:17.639Z,81.10
2022-10-11T03:22:44.425Z,81.20
2022-10-11T03:25:11.261Z,81.10
2022-10-11T03:27:38.167Z,81.80
2022-10-11T03:30:14.125Z,81.80
2022-10-11T03:32:44.533Z,81.70
2022-10-11T03:35:11.483Z,82.10
2022-10-11T03:37:38.220Z,82.10
2022-10-11T03:40:08.334Z,82.60
2022-10-11T03:42:35.657Z,82.60
2022-10-11T03:45:04.997Z,82.60
2022-10-11T03:47:32.443Z,83.10
2022-10-11T03:50:02.131Z,83.30
2022-10-11T03:52:31.843Z,83.40
2022-10-11T03:54:58.665Z,83.90
2022-10-11T03:57:25.497Z,84.50
2022-10-11T03:59:52.278Z,84.80
2022-10-11T04:02:19.167Z,84.90
2022-10-11T04:04:48.149Z,85.30
2022-10-11T04:07:14.889Z,85.30
2022-10-11T04:09:42.087Z,85.90
2022-10-11T04:12:08.890Z,86.20
2022-10-11T04:14:35.947Z,86.90
2022-10-11T04:17:07.312Z,87.00
2022-10-11T04:19:39.205Z,87.30
2022-10-11T04:22:06.521Z,87.40
2022-10-11T04:24:33.440Z,87.50
2022-10-11T04:27:00.255Z,87.60
2022-10-11T04:29:32.200Z,88.10
2022-10-11T04:32:03.983Z,87.80
2022-10-11T04:34:31.567Z,87.90
2022-10-11T04:37:00.819Z,88.80
2022-10-11T04:39:30.147Z,88.40
2022-10-11T04:41:59.426Z,88.50
2022-10-11T04:44:26.321Z,89.50
2022-10-11T04:46:57.862Z,89.30
2022-10-11T04:49:24.651Z,89.10
2022-10-11T04:51:54.038Z,89.60
2022-10-11T04:54:20.799Z,90.00
2022-10-11T04:56:47.569Z,89.90
2022-10-11T04:59:14.401Z,89.70
2022-10-11T05:01:43.594Z,90.00
2022-10-11T05:04:10.373Z,90.20
2022-10-11T05:06:37.115Z,90.20
2022-10-11T05:09:04.061Z,90.10
2022-10-11T05:11:33.291Z,90.10
2022-10-11T05:14:02.537Z,90.00
2022-10-11T05:16:29.378Z,90.30
2022-10-11T05:18:58.629Z,90.30
2022-10-11T05:21:28.385Z,90.40
2022-10-11T05:23:56.612Z,90.50
2022-10-11T05:26:25.569Z,90.60
2022-10-11T05:28:55.233Z,90.40
2022-10-11T05:31:22.698Z,90.90
2022-10-11T05:33:49.540Z,90.60
2022-10-11T05:36:18.911Z,90.60
2022-10-11T05:38:45.863Z,90.60
2022-10-11T05:41:18.634Z,90.70
2022-10-11T05:43:45.876Z,90.80
2022-10-11T05:46:13.410Z,90.60
2022-10-11T05:48:40.272Z,90.60
2022-10-11T05:51:14.345Z,90.30
2022-10-11T05:53:43.631Z,90.10
2022-10-11T05:56:21.965Z,90.00
2022-10-11T05:58:49.350Z,89.90
2022-10-11T06:01:18.486Z,90.00
2022-10-11T06:03:47.648Z,90.10
2022-10-11T06:06:14.986Z,90.10
2022-10-11T06:08:44.675Z,90.00
2022-10-11T06:11:13.920Z,89.60
2022-10-11T06:13:43.642Z,89.60
2022-10-11T06:16:13.969Z,89.40
2022-10-11T06:18:41.087Z,89.10
2022-10-11T06:21:07.945Z,88.90
2022-10-11T06:23:34.889Z,88.80
2022-10-11T06:26:08.962Z,88.90
2022-10-11T06:28:37.157Z,88.70
2022-10-11T06:31:07.881Z,88.10
2022-10-11T06:33:35.510Z,88.20
2022-10-11T06:36:09.877Z,88.60
2022-10-11T06:38:44.492Z,87.70
2022-10-11T06:41:18.839Z,87.60
2022-10-11T06:43:46.327Z,87.50
2022-10-11T06:46:13.295Z,87.50
2022-10-11T06:48:44.526Z,87.30
2022-10-11T06:51:16.105Z,86.90
2022-10-11T06:53:43.082Z,86.80
2022-10-11T06:56:13.386Z,86.50
2022-10-11T06:58:40.633Z,86.20
2022-10-11T07:01:10.288Z,85.70
2022-10-11T07:03:38.258Z,85.50
2022-10-11T07:06:13.733Z,85.10
2022-10-11T07:08:43.417Z,84.80
2022-10-11T07:11:12.659Z,84.40
2022-10-11T07:13:42.369Z,84.20
2022-10-11T07:16:13.028Z,83.90
2022-10-11T07:18:40.194Z,83.80
2022-10-11T07:21:13.361Z,83.60
2022-10-11T07:23:40.217Z,83.10
2022-10-11T07:26:08.401Z,83.10
2022-10-11T07:28:36.577Z,82.70
2022-10-11T07:31:16.068Z,82.30
2022-10-11T07:33:43.106Z,81.90
2022-10-11T07:36:12.869Z,81.20
2022-10-11T07:38:43.836Z,80.90
2022-10-11T07:41:11.396Z,80.30
2022-10-11T07:43:39.148Z,80.30
2022-10-11T07:46:06.993Z,79.50
2022-10-11T07:48:35.567Z,79.70
2022-10-11T07:51:13.175Z,79.40
2022-10-11T07:53:45.189Z,79.30
2022-10-11T07:56:14.396Z,79.10
2022-10-11T07:58:42.321Z,78.50
2022-10-11T08:01:14.559Z,78.60
2022-10-11T08:03:44.114Z,78.40
2022-10-11T08:06:14.492Z,78.40
2022-10-11T08:08:43.568Z,78.30
2022-10-11T08:11:19.042Z,77.60
2022-10-11T08:13:45.782Z,76.10
2022-10-11T08:16:13.165Z,76.00
2022-10-11T08:18:40.070Z,75.30
2022-10-11T08:21:11.900Z,74.60
2022-10-11T08:23:43.554Z,74.60
2022-10-11T08:26:12.872Z,74.30
2022-10-11T08:28:39.705Z,73.90
2022-10-11T08:31:09.229Z,73.90
2022-10-11T08:33:39.061Z,74.00
2022-10-11T08:36:11.677Z,73.40
2022-10-11T08:38:41.558Z,72.70
2022-10-11T08:41:34.288Z,72.80
2022-10-11T08:45:05.585Z,72.60
2022-10-11T08:47:28.627Z,72.00
2022-10-11T08:49:56.060Z,70.70
2022-10-11T08:52:42.452Z,70.50
2022-10-11T08:55:26.075Z,69.70
2022-10-11T08:57:59.264Z,69.50
2022-10-11T09:00:30.585Z,69.00
2022-10-11T09:03:40.655Z,68.50
2022-10-11T09:06:32.281Z,68.80
2022-10-11T09:09:22.338Z,67.80
2022-10-11T09:12:09.744Z,66.90
2022-10-11T09:15:11.809Z,67.30
2022-10-11T09:17:49.931Z,67.20
2022-10-11T09:20:53.092Z,66.90
2022-10-11T09:23:41.722Z,66.40
2022-10-11T09:26:22.999Z,65.90
2022-10-11T09:29:01.531Z,65.80
2022-10-11T09:31:32.251Z,66.00
2022-10-11T09:34:08.571Z,65.80
2022-10-11T09:36:58.822Z,65.30
2022-10-11T09:39:39.323Z,64.90
2022-10-11T09:42:10.863Z,63.60
2022-10-11T09:44:43.388Z,62.90
2022-10-11T09:47:27.370Z,62.90
2022-10-11T09:50:15.078Z,60.00
2022-10-11T09:52:50.286Z,59.90
2022-10-11T09:55:33.947Z,58.60
2022-10-11T09:58:05.661Z,58.80
2022-10-11T10:00:33.948Z,58.70
2022-10-11T10:03:05.766Z,58.10
2022-10-11T10:05:36.793Z,57.40
2022-10-11T10:08:08.351Z,56.60
2022-10-11T10:10:48.601Z,55.60
2022-10-11T10:13:20.111Z,55.90
2022-10-11T10:15:50.878Z,55.60
2022-10-11T10:18:34.059Z,54.90
2022-10-11T10:21:01.572Z,54.20
2022-10-11T10:23:31.554Z,53.30
2022-10-11T10:26:19.190Z,52.60
2022-10-11T10:28:56.748Z,51.00
2022-10-11T10:34:54.851Z,50.00
2022-10-11T10:37:29.095Z,49.60
2022-10-11T10:40:05.556Z,48.60
2022-10-11T10:42:35.289Z,48.70
2022-10-11T10:45:02.727Z,48.00
2022-10-11T10:48:04.518Z,47.70
2022-10-11T10:50:56.148Z,46.90
2022-10-11T10:53:44.598Z,47.90
2022-10-11T10:56:33.715Z,47.40
2022-10-11T10:59:31.845Z,45.40
2022-10-11T11:02:39.075Z,44.90
2022-10-11T11:05:13.668Z,43.60
2022-10-11T11:07:43.476Z,44.20
2022-10-11T11:10:27.142Z,43.00
2022-10-11T11:13:20.188Z,42.80
2022-10-11T11:15:58.495Z,42.20
2022-10-11T11:18:42.314Z,42.30
2022-10-11T11:21:26.992Z,42.20
2022-10-11T11:23:56.751Z,42.00
2022-10-11T11:26:37.832Z,42.30
2022-10-11T11:29:08.551Z,41.80
2022-10-11T11:31:44.359Z,40.70
2022-10-11T11:34:25.027Z,40.00
2022-10-11T11:36:56.339Z,39.60
2022-10-11T11:39:43.887Z,37.10
2022-10-11T11:42:31.277Z,36.70
2022-10-11T11:45:12.949Z,36.80
2022-10-11T11:47:46.540Z,36.50
2022-10-11T11:50:22.210Z,36.80
2022-10-11T11:52:58.146Z,37.70
2022-10-11T11:55:35.049Z,38.40
2022-10-11T11:58:15.629Z,37.50
2022-10-11T12:00:49.250Z,37.50
2022-10-11T12:03:27.895Z,38.40
2022-10-11T12:06:13.615Z,38.90
2022-10-11T12:09:04.109Z,39.80
2022-10-11T12:11:43.607Z,40.00
2022-10-11T12:14:18.939Z,39.60
2022-10-11T12:17:10.391Z,38.40
2022-10-11T12:19:39.881Z,37.10
2022-10-11T12:22:36.468Z,36.90
2022-10-11T12:25:09.291Z,37.20
2022-10-11T12:27:40.466Z,37.50
2022-10-11T12:30:44.694Z,37.20
2022-10-11T12:33:45.547Z,35.70
2022-10-11T12:36:44.288Z,35.20
2022-10-11T12:39:19.884Z,32.50
2022-10-11T12:41:53.811Z,32.10
2022-10-11T12:44:28.211Z,29.60
2022-10-11T12:46:55.002Z,26.10
2022-10-11T12:49:38.155Z,18.30
2022-10-11T12:52:19.699Z,13.20
2022-10-11T12:55:07.941Z,8.90
2022-10-11T12:57:59.833Z,7.80
2022-10-11T13:00:35.322Z,5.60
2022-10-11T13:03:28.457Z,1.60
2022-10-11T13:06:01.631Z,1.00
2022-10-11T13:08:30.794Z,1.00
2022-10-11T13:11:02.649Z,1.00
2022-10-11T13:13:37.448Z,1.00
2022-10-11T13:16:14.520Z,1.00
2022-10-11T13:18:49.286Z,6.60
2022-10-11T13:21:39.387Z,11.80
2022-10-11T13:24:18.290Z,10.40
2022-10-11T13:26:48.257Z,10.70
2022-10-11T13:29:18.307Z,14.90
2022-10-11T13:31:49.276Z,16.70
2022-10-11T13:34:19.706Z,18.80
2022-10-11T13:36:54.182Z,19.80
2022-10-11T13:39:31.497Z,20.50
2022-10-11T13:41:59.729Z,20.40
2022-10-11T13:44:29.121Z,20.20
2022-10-11T13:46:58.634Z,21.00
2022-10-11T13:49:42.808Z,21.40
2022-10-11T13:52:18.576Z,20.90
2022-10-11T13:54:54.471Z,22.20
2022-10-11T13:57:24.658Z,22.60
2022-10-11T13:59:53.776Z,22.80
2022-10-11T14:02:23.844Z,22.40
2022-10-11T14:04:50.696Z,22.90
2022-10-11T14:07:27.662Z,20.60
2022-10-11T14:09:57.252Z,22.10
2022-10-11T14:12:27.232Z,22.60
2022-10-11T14:14:54.162Z,21.60
2022-10-11T14:17:24.680Z,22.20
2022-10-11T14:20:15.872Z,23.30
2022-10-11T14:22:47.797Z,22.80
2022-10-11T14:25:14.636Z,23.40
2022-10-11T14:27:42.804Z,23.90
2022-10-11T14:30:27.479Z,24.20
2022-10-11T14:32:59.051Z,24.60
2022-10-11T14:35:28.750Z,24.40
2022-10-11T14:37:55.604Z,24.90
2022-10-11T14:40:29.564Z,23.70
2022-10-11T14:42:59.197Z,24.90
2022-10-11T14:45:26.173Z,24.90
2022-10-11T14:47:53.521Z,25.50
2022-10-11T14:50:31.692Z,26.10
2022-10-11T14:52:58.751Z,26.60
2022-10-11T14:55:27.772Z,27.40
2022-10-11T14:57:55.332Z,27.70
2022-10-11T15:00:28.079Z,27.10
2022-10-11T15:02:55.280Z,26.70
2022-10-11T15:05:31.186Z,27.00
2022-10-11T15:08:06.279Z,27.40
2022-10-11T15:10:41.431Z,27.90
2022-10-11T15:13:09.012Z,28.00
2022-10-11T15:15:37.643Z,28.30
2022-10-11T15:18:07.018Z,28.40
2022-10-11T15:20:40.437Z,28.90
2022-10-11T15:23:12.150Z,29.10
2022-10-11T15:25:40.786Z,28.80
2022-10-11T15:28:08.503Z,28.50
2022-10-11T15:30:41.340Z,28.60
2022-10-11T15:33:08.954Z,29.00
2022-10-11T15:35:38.115Z,29.70
2022-10-11T15:38:05.063Z,30.00
2022-10-11T15:40:35.492Z,30.20
2022-10-11T15:43:02.931Z,30.80
2022-10-11T15:45:30.288Z,31.00
2022-10-11T15:47:57.432Z,31.50
2022-10-11T15:50:36.701Z,31.90
2022-10-11T15:53:08.115Z,32.50
2022-10-11T15:55:38.167Z,33.40
2022-10-11T15:58:15.528Z,33.40
2022-10-11T16:00:43.727Z,33.40
2022-10-11T16:03:14.814Z,33.70
2022-10-11T16:05:42.629Z,34.20
2022-10-11T16:08:13.083Z,34.50
2022-10-11T16:10:41.173Z,34.90
2022-10-11T16:13:09.327Z,35.60
2022-10-11T16:15:38.762Z,36.30
2022-10-11T16:18:06.662Z,36.20
2022-10-11T16:20:37.024Z,36.20
2022-10-11T16:23:03.964Z,36.60
2022-10-11T16:25:33.167Z,36.80
2022-10-11T16:28:00.277Z,37.40
2022-10-11T16:30:27.092Z,37.90
2022-10-11T16:32:56.484Z,39.10
2022-10-11T16:35:23.584Z,40.70
2022-10-11T16:37:52.889Z,40.70
2022-10-11T16:40:21.324Z,40.40
2022-10-11T16:42:48.527Z,40.70
2022-10-11T16:45:16.657Z,41.30
2022-10-11T16:47:44.268Z,41.00
2022-10-11T16:50:11.972Z,43.20
2022-10-11T16:52:39.219Z,45.00
2022-10-11T16:55:06.570Z,46.30
2022-10-11T16:57:33.412Z,47.10
2022-10-11T17:00:02.928Z,47.60
2022-10-11T17:02:32.448Z,48.50
2022-10-11T17:05:02.369Z,49.20
2022-10-11T17:07:32.331Z,50.00
2022-10-11T17:10:01.600Z,50.70
2022-10-11T17:12:32.015Z,52.30
2022-10-11T17:14:58.846Z,52.60
2022-10-11T17:17:30.672Z,53.10
2022-10-11T17:19:57.547Z,54.30
2022-10-11T17:22:24.586Z,54.70
2022-10-11T17:24:54.480Z,55.30
2022-10-11T17:27:21.271Z,55.50
2022-10-11T17:29:50.427Z,56.00
2022-10-11T17:32:17.471Z,56.80
2022-10-11T17:34:44.546Z,57.10
2022-10-11T17:37:12.674Z,57.30
2022-10-11T17:39:41.909Z,57.70
2022-10-11T17:42:10.962Z,58.50
2022-10-11T17:44:37.863Z,58.80
2022-10-11T17:47:04.790Z,59.20
2022-10-11T17:49:31.752Z,59.70
2022-10-11T17:51:58.641Z,60.00
2022-10-11T17:54:26.377Z,60.80
2022-10-11T17:56:54.492Z,61.20
2022-10-11T17:59:22.315Z,62.50
2022-10-11T18:01:51.437Z,61.80
2022-10-11T18:04:21.851Z,62.00
2022-10-11T18:06:48.838Z,63.10
2022-10-11T18:09:18.109Z,63.10
2022-10-11T18:11:45.414Z,63.50
2022-10-11T18:14:14.437Z,63.50
2022-10-11T18:16:43.494Z,64.10
2022-10-11T18:19:17.129Z,64.60
2022-10-11T18:21:43.988Z,64.50
2022-10-11T18:24:16.018Z,65.10
2022-10-11T18:26:44.861Z,65.50
2022-10-11T18:29:12.627Z,65.90
2022-10-11T18:31:40.689Z,66.00
2022-10-11T18:34:13.038Z,66.30
2022-10-11T18:36:42.157Z,66.80
2022-10-11T18:39:14.752Z,67.00
2022-10-11T18:41:44.368Z,67.90
2022-10-11T18:44:14.375Z,68.00
2022-10-11T18:46:42.092Z,68.60
2022-10-11T18:49:08.985Z,68.80
2022-10-11T18:51:38.381Z,69.20
2022-10-11T18:54:09.011Z,69.50
2022-10-11T18:56:37.113Z,69.60
2022-10-11T18:59:05.514Z,70.00
2022-10-11T19:01:34.199Z,70.10
2022-10-11T19:04:02.510Z,70.70
2022-10-11T19:06:31.797Z,71.00
2022-10-11T19:09:06.803Z,71.30
2022-10-11T19:11:37.072Z,71.70
2022-10-11T19:14:14.512Z,71.70
2022-10-11T19:16:49.468Z,71.70
2022-10-11T19:19:18.306Z,72.20
2022-10-11T19:21:48.004Z,72.30
2022-10-11T19:24:16.648Z,72.90
2022-10-11T19:26:43.691Z,73.70
2022-10-11T19:29:16.605Z,73.30
2022-10-11T19:31:48.925Z,73.60
2022-10-11T19:34:16.076Z,73.80
2022-10-11T19:36:43.526Z,74.10
2022-10-11T19:39:17.378Z,74.50
2022-10-11T19:41:47.168Z,74.60
2022-10-11T19:44:14.792Z,74.90
2022-10-11T19:46:51.420Z,75.10
2022-10-11T19:49:22.492Z,75.60
2022-10-11T19:51:49.672Z,75.60
2022-10-11T19:54:16.600Z,75.80
2022-10-11T19:56:44.507Z,76.30
2022-10-11T19:59:12.301Z,76.40
2022-10-11T20:01:40.313Z,76.50
2022-10-11T20:04:22.690Z,77.10
2022-10-11T20:06:57.499Z,77.30
2022-10-11T20:09:30.818Z,77.60
2022-10-11T20:12:00.690Z,77.90
2022-10-11T20:14:27.497Z,78.00
2022-10-11T20:16:54.369Z,78.40
2022-10-11T20:19:26.192Z,78.60
2022-10-11T20:21:54.674Z,79.00
2022-10-11T20:24:21.515Z,79.20
2022-10-11T20:26:48.469Z,79.30
2022-10-11T20:29:15.247Z,79.80
2022-10-11T20:31:44.280Z,79.80
2022-10-11T20:34:11.414Z,80.00
2022-10-11T20:36:38.412Z,80.10
2022-10-11T20:39:06.669Z,80.20
2022-10-11T20:41:42.889Z,80.50
2022-10-11T20:44:09.748Z,81.50
2022-10-11T20:46:38.775Z,80.90
2022-10-11T20:49:08.726Z,81.20
2022-10-11T20:51:42.090Z,81.10
2022-10-11T20:54:09.926Z,81.10
2022-10-11T20:56:37.475Z,81.10
2022-10-11T20:59:05.176Z,81.30
2022-10-11T21:01:40.187Z,81.50
2022-10-11T21:04:09.777Z,81.40
2022-10-11T21:06:36.635Z,82.00
2022-10-11T21:09:03.537Z,82.10
2022-10-11T21:11:33.212Z,81.90
2022-10-11T21:14:02.323Z,82.00
2022-10-11T21:16:29.753Z,82.30
2022-10-11T21:18:58.517Z,82.30
2022-10-11T21:21:26.176Z,82.30
2022-10-11T21:24:01.472Z,82.60
2022-10-11T21:26:29.822Z,82.40
2022-10-11T21:28:59.210Z,82.60
2022-10-11T21:31:29.745Z,82.70
2022-10-11T21:34:00.551Z,82.70
2022-10-11T21:36:29.889Z,83.10
2022-10-11T21:38:58.825Z,83.20
2022-10-11T21:41:29.085Z,83.20
2022-10-11T21:43:58.647Z,83.30
2022-10-11T21:47:01.289Z,83.50
2022-10-11T21:49:17.717Z,83.50
2022-10-11T21:51:44.655Z,84.00
2022-10-11T21:54:11.466Z,84.00
2022-10-11T21:56:41.342Z,84.00
2022-10-11T21:59:11.248Z,84.20
2022-10-11T22:01:39.945Z,84.50
2022-10-11T22:04:12.240Z,84.60
2022-10-11T22:06:39.322Z,85.60
2022-10-11T22:09:07.400Z,84.90
2022-10-11T22:11:37.371Z,85.20
2022-10-11T22:14:04.611Z,85.50
2022-10-11T22:16:33.557Z,85.50
2022-10-11T22:19:02.535Z,85.70
2022-10-11T22:21:29.657Z,85.60
2022-10-11T22:23:58.978Z,85.70
2022-10-11T22:26:30.579Z,85.90
2022-10-11T22:28:59.187Z,86.00
2022-10-11T22:31:26.479Z,86.40
2022-10-11T22:33:55.143Z,86.50
2022-10-11T22:36:24.535Z,86.70
2022-10-11T22:38:52.104Z,86.50
2022-10-11T22:41:18.976Z,86.80
2022-10-11T22:43:45.818Z,87.00
2022-10-11T22:46:12.601Z,87.20
2022-10-11T22:48:39.513Z,87.40
2022-10-11T22:51:06.450Z,87.50
2022-10-11T22:53:33.294Z,87.60
2022-10-11T22:56:00.418Z,87.80
2022-10-11T22:58:31.777Z,87.80
2022-10-11T23:01:16.112Z,88.10
2022-10-11T23:03:47.104Z,88.20
2022-10-11T23:06:13.973Z,88.40
2022-10-11T23:08:40.826Z,88.50
2022-10-11T23:11:11.346Z,88.90
2022-10-11T23:13:38.589Z,88.90
2022-10-11T23:16:12.779Z,89.00
2022-10-11T23:18:44.417Z,89.20
2022-10-11T23:21:11.488Z,89.30
2022-10-11T23:23:39.973Z,89.40
2022-10-11T23:26:12.590Z,89.60
2022-10-11T23:28:39.909Z,89.80
2022-10-11T23:31:19.458Z,89.90
2022-10-11T23:33:47.491Z,89.90
2022-10-11T23:36:19.900Z,90.00
2022-10-11T23:38:54.424Z,90.00
2022-10-11T23:41:22.824Z,90.00
2022-10-11T23:43:49.947Z,90.00
2022-10-11T23:46:16.898Z,90.10
2022-10-11T23:48:45.772Z,90.10
2022-10-11T23:51:15.413Z,90.10
2022-10-11T23:53:44.729Z,90.10
2022-10-11T23:56:14.062Z,90.20
2022-10-11T23:58:40.949Z,90.20
